createdAt,value
2019-05-25T00:01:09.889Z,10.80
2019-05-25T00:03:38.673Z,10.80
2019-05-25T00:06:07.430Z,10.80
2019-05-25T00:08:36.172Z,10.70
2019-05-25T00:11:07.612Z,10.80
2019-05-25T00:13:36.354Z,10.70
2019-05-25T00:16:05.242Z,10.70
2019-05-25T00:18:34.073Z,10.80
2019-05-25T00:21:02.816Z,10.70
2019-05-25T00:23:31.561Z,10.80
2019-05-25T00:26:00.383Z,10.80
2019-05-25T00:28:29.256Z,10.80
2019-05-25T00:30:58.071Z,10.80
2019-05-25T00:33:26.835Z,10.80
2019-05-25T00:35:55.564Z,10.80
2019-05-25T00:38:24.296Z,10.90
2019-05-25T00:40:53.140Z,10.90
2019-05-25T00:43:21.876Z,10.80
2019-05-25T00:45:50.709Z,10.80
2019-05-25T00:48:19.572Z,10.80
2019-05-25T00:50:48.321Z,10.70
2019-05-25T00:53:17.060Z,10.70
2019-05-25T00:55:45.830Z,10.70
2019-05-25T00:58:14.554Z,10.70
2019-05-25T01:00:43.650Z,10.70
2019-05-25T01:03:12.401Z,10.60
2019-05-25T01:05:41.156Z,10.60
2019-05-25T01:08:09.918Z,10.60
2019-05-25T01:10:38.727Z,10.50
2019-05-25T01:13:07.456Z,10.50
2019-05-25T01:15:36.382Z,10.60
2019-05-25T01:18:05.100Z,10.50
2019-05-25T01:20:33.855Z,10.40
2019-05-25T01:23:02.623Z,10.30
2019-05-25T01:25:31.403Z,10.30
2019-05-25T01:28:00.131Z,10.30
2019-05-25T01:30:29.192Z,10.30
2019-05-25T01:32:57.936Z,10.20
2019-05-25T01:35:26.679Z,10.10
2019-05-25T01:37:55.456Z,10.00
2019-05-25T01:40:24.256Z,9.90
2019-05-25T01:42:54.846Z,9.90
2019-05-25T01:45:23.641Z,9.90
2019-05-25T01:47:52.483Z,9.80
2019-05-25T01:50:21.275Z,9.80
2019-05-25T01:52:50.059Z,9.80
2019-05-25T01:55:18.788Z,9.80
2019-05-25T01:57:47.598Z,9.80
2019-05-25T02:00:17.914Z,9.80
2019-05-25T02:02:48.408Z,9.90
2019-05-25T02:05:17.092Z,9.90
2019-05-25T02:07:45.848Z,9.90
2019-05-25T02:10:15.210Z,9.90
2019-05-25T02:12:44.025Z,9.80
2019-05-25T02:15:13.190Z,9.70
2019-05-25T02:17:41.983Z,9.70
2019-05-25T02:20:11.314Z,9.70
2019-05-25T02:22:40.056Z,9.50
2019-05-25T02:25:17.517Z,9.40
2019-05-25T02:27:40.320Z,9.40
2019-05-25T02:30:10.749Z,9.40
2019-05-25T02:32:39.563Z,9.50
2019-05-25T02:35:08.891Z,9.40
2019-05-25T02:37:37.660Z,9.30
2019-05-25T02:40:10.078Z,9.40
2019-05-25T02:42:38.820Z,9.40
2019-05-25T02:45:07.854Z,9.50
2019-05-25T02:47:36.646Z,9.50
2019-05-25T02:50:09.677Z,9.60
2019-05-25T02:52:38.433Z,9.60
2019-05-25T02:55:10.116Z,9.50
2019-05-25T02:57:39.063Z,9.50
2019-05-25T03:00:08.542Z,9.50
2019-05-25T03:02:37.496Z,9.60
2019-05-25T03:05:08.230Z,9.60
2019-05-25T03:07:38.555Z,9.60
2019-05-25T03:10:07.588Z,9.60
2019-05-25T03:12:36.662Z,9.60
2019-05-25T03:15:08.503Z,9.50
2019-05-25T03:17:37.300Z,9.50
2019-05-25T03:20:07.160Z,9.50
2019-05-25T03:22:35.914Z,9.50
2019-05-25T03:25:06.943Z,9.50
2019-05-25T03:27:37.487Z,9.50
2019-05-25T03:30:09.863Z,9.50
2019-05-25T03:32:38.635Z,9.50
2019-05-25T03:35:08.171Z,9.50
2019-05-25T03:37:36.941Z,9.50
2019-05-25T03:40:09.744Z,9.50
2019-05-25T03:42:38.621Z,9.50
2019-05-25T03:45:07.849Z,9.40
2019-05-25T03:47:36.515Z,9.40
2019-05-25T03:50:06.166Z,9.40
2019-05-25T03:52:34.994Z,9.40
2019-05-25T03:55:04.643Z,9.30
2019-05-25T03:57:33.441Z,9.40
2019-05-25T04:00:02.210Z,9.30
2019-05-25T04:02:30.957Z,9.40
2019-05-25T04:04:59.682Z,9.40
2019-05-25T04:07:28.504Z,9.40
2019-05-25T04:09:57.266Z,9.40
2019-05-25T04:12:25.997Z,9.50
2019-05-25T04:14:54.715Z,9.50
2019-05-25T04:17:23.470Z,9.60
2019-05-25T04:19:52.259Z,9.60
2019-05-25T04:22:22.204Z,9.60
2019-05-25T04:24:51.130Z,9.60
2019-05-25T04:27:19.905Z,9.60
2019-05-25T04:29:48.655Z,9.60
2019-05-25T04:32:17.411Z,9.60
2019-05-25T04:34:46.139Z,9.80
2019-05-25T04:37:14.873Z,9.80
2019-05-25T04:39:43.623Z,9.70
2019-05-25T04:42:12.363Z,9.90
2019-05-25T04:44:41.145Z,9.90
2019-05-25T04:47:25.880Z,10.00
2019-05-25T04:49:40.386Z,10.00
2019-05-25T04:52:09.119Z,10.00
2019-05-25T04:54:37.890Z,10.00
2019-05-25T04:57:06.781Z,10.00
2019-05-25T04:59:35.752Z,10.00
2019-05-25T05:02:04.821Z,10.10
2019-05-25T05:04:33.590Z,10.10
2019-05-25T05:07:02.350Z,10.10
2019-05-25T05:09:31.100Z,10.10
2019-05-25T05:11:59.845Z,10.00
2019-05-25T05:14:28.588Z,10.00
2019-05-25T05:16:57.394Z,10.00
2019-05-25T05:19:26.223Z,10.00
2019-05-25T05:21:54.946Z,10.20
2019-05-25T05:24:23.719Z,10.00
2019-05-25T05:26:56.107Z,10.00
2019-05-25T05:29:22.840Z,10.10
2019-05-25T05:31:51.684Z,10.10
2019-05-25T05:34:20.437Z,10.00
2019-05-25T05:36:50.062Z,10.10
2019-05-25T05:39:18.932Z,10.10
2019-05-25T05:41:51.720Z,10.20
2019-05-25T05:44:21.765Z,10.30
2019-05-25T05:46:52.070Z,10.30
2019-05-25T05:49:21.067Z,10.30
2019-05-25T05:51:50.967Z,10.40
2019-05-25T05:54:21.105Z,10.50
2019-05-25T05:56:49.930Z,10.40
2019-05-25T05:59:18.722Z,10.50
2019-05-25T06:01:47.628Z,10.50
2019-05-25T06:04:16.354Z,10.50
2019-05-25T06:06:45.079Z,10.50
2019-05-25T06:09:13.856Z,10.60
2019-05-25T06:11:42.596Z,10.70
2019-05-25T06:14:11.399Z,10.70
2019-05-25T06:16:40.153Z,10.70
2019-05-25T06:19:09.009Z,10.80
2019-05-25T06:21:37.748Z,10.90
2019-05-25T06:24:06.594Z,10.90
2019-05-25T06:26:35.409Z,11.00
2019-05-25T06:29:04.485Z,11.00
2019-05-25T06:31:33.260Z,11.00
2019-05-25T06:34:02.068Z,10.90
2019-05-25T06:36:32.551Z,10.80
2019-05-25T06:39:01.291Z,10.70
2019-05-25T06:41:30.044Z,10.70
2019-05-25T06:43:58.799Z,10.80
2019-05-25T06:46:27.658Z,10.70
2019-05-25T06:48:56.402Z,10.80
2019-05-25T06:51:25.153Z,10.90
2019-05-25T06:53:53.958Z,11.10
2019-05-25T06:56:22.698Z,11.10
2019-05-25T06:58:51.432Z,11.30
2019-05-25T07:01:20.203Z,11.30
2019-05-25T07:03:48.958Z,11.20
2019-05-25T07:06:17.686Z,11.20
2019-05-25T07:08:46.455Z,11.40
2019-05-25T07:11:15.291Z,11.50
2019-05-25T07:13:44.116Z,11.40
2019-05-25T07:16:12.934Z,11.60
2019-05-25T07:18:41.732Z,11.60
2019-05-25T07:21:11.704Z,11.60
2019-05-25T07:23:40.531Z,11.70
2019-05-25T07:26:09.391Z,11.80
2019-05-25T07:28:38.240Z,11.80
2019-05-25T07:31:07.061Z,11.90
2019-05-25T07:33:41.663Z,12.00
2019-05-25T07:36:07.707Z,12.00
2019-05-25T07:38:36.907Z,11.90
2019-05-25T07:41:05.632Z,11.80
2019-05-25T07:43:34.362Z,11.80
2019-05-25T07:46:03.126Z,11.90
2019-05-25T07:48:31.973Z,12.10
2019-05-25T07:51:00.699Z,11.90
2019-05-25T07:53:29.448Z,12.00
2019-05-25T07:55:58.212Z,11.90
2019-05-25T07:58:26.933Z,12.00
2019-05-25T08:00:55.755Z,12.00
2019-05-25T08:03:24.520Z,11.80
2019-05-25T08:05:53.324Z,12.00
2019-05-25T08:08:22.069Z,12.20
2019-05-25T08:10:50.836Z,12.10
2019-05-25T08:13:19.642Z,12.00
2019-05-25T08:15:48.446Z,12.10
2019-05-25T08:18:17.284Z,12.40
2019-05-25T08:20:47.320Z,12.50
2019-05-25T08:23:16.342Z,12.40
2019-05-25T08:25:45.105Z,12.30
2019-05-25T08:28:13.849Z,12.40
2019-05-25T08:30:45.623Z,12.40
2019-05-25T08:33:14.364Z,12.40
2019-05-25T08:35:46.363Z,12.60
2019-05-25T08:38:13.587Z,12.50
2019-05-25T08:40:43.830Z,12.70
2019-05-25T08:43:12.618Z,13.00
2019-05-25T08:45:41.496Z,13.10
2019-05-25T08:48:10.296Z,13.00
2019-05-25T08:50:39.126Z,12.70
2019-05-25T08:53:08.485Z,12.90
2019-05-25T08:55:37.685Z,12.90
2019-05-25T08:58:06.438Z,13.00
2019-05-25T09:00:35.261Z,12.80
2019-05-25T09:03:04.114Z,12.70
2019-05-25T09:05:32.864Z,12.90
2019-05-25T09:08:01.631Z,13.10
2019-05-25T09:10:30.386Z,13.00
2019-05-25T09:12:59.381Z,13.10
2019-05-25T09:15:28.148Z,13.00
2019-05-25T09:17:57.102Z,12.90
2019-05-25T09:20:25.889Z,13.00
2019-05-25T09:22:56.591Z,13.10
2019-05-25T09:25:25.212Z,13.00
2019-05-25T09:27:53.941Z,13.10
2019-05-25T09:30:23.005Z,13.20
2019-05-25T09:32:51.741Z,13.20
2019-05-25T09:35:20.537Z,13.20
2019-05-25T09:37:49.397Z,13.20
2019-05-25T09:40:18.236Z,13.20
2019-05-25T09:42:47.269Z,13.10
2019-05-25T09:45:16.299Z,13.00
2019-05-25T09:47:45.044Z,13.10
2019-05-25T09:50:14.707Z,13.10
2019-05-25T09:52:43.644Z,13.00
2019-05-25T09:55:13.165Z,13.10
2019-05-25T09:57:42.103Z,13.00
2019-05-25T10:00:13.391Z,12.90
2019-05-25T10:02:42.881Z,13.00
2019-05-25T10:05:12.976Z,12.90
2019-05-25T10:07:41.723Z,12.80
2019-05-25T10:10:12.833Z,12.80
2019-05-25T10:12:41.601Z,13.00
2019-05-25T10:15:10.878Z,13.00
2019-05-25T10:17:39.586Z,13.00
2019-05-25T10:20:08.677Z,13.00
2019-05-25T10:22:37.460Z,13.10
2019-05-25T10:25:07.557Z,13.30
2019-05-25T10:27:36.452Z,13.10
2019-05-25T10:30:08.857Z,13.00
2019-05-25T10:32:37.746Z,13.20
2019-05-25T10:35:08.358Z,13.10
2019-05-25T10:37:37.109Z,13.10
2019-05-25T10:40:08.485Z,13.10
2019-05-25T10:42:37.298Z,13.10
2019-05-25T10:45:07.812Z,13.10
2019-05-25T10:47:36.732Z,13.10
2019-05-25T10:50:12.399Z,12.90
2019-05-25T10:52:41.148Z,12.80
2019-05-25T10:55:10.888Z,12.90
2019-05-25T10:57:39.735Z,12.80
2019-05-25T11:00:10.452Z,13.00
2019-05-25T11:02:39.195Z,13.00
2019-05-25T11:05:08.635Z,13.10
2019-05-25T11:07:37.557Z,13.00
2019-05-25T11:10:08.409Z,13.00
2019-05-25T11:12:37.198Z,13.00
2019-05-25T11:15:08.096Z,13.10
2019-05-25T11:17:36.844Z,13.10
2019-05-25T11:20:09.128Z,13.10
2019-05-25T11:22:37.874Z,13.10
2019-05-25T11:25:08.009Z,13.20
2019-05-25T11:27:36.770Z,13.30
2019-05-25T11:30:09.463Z,13.40
2019-05-25T11:32:37.871Z,13.30
2019-05-25T11:35:07.606Z,13.40
2019-05-25T11:37:36.912Z,13.30
2019-05-25T11:40:10.172Z,13.40
2019-05-25T11:42:38.915Z,13.30
2019-05-25T11:45:08.485Z,13.10
2019-05-25T11:47:37.328Z,13.20
2019-05-25T11:50:09.510Z,13.30
2019-05-25T11:52:38.672Z,13.50
2019-05-25T11:55:08.372Z,13.50
2019-05-25T11:57:37.257Z,13.60
2019-05-25T12:00:23.568Z,13.80
2019-05-25T12:02:41.407Z,13.60
2019-05-25T12:05:10.546Z,13.50
2019-05-25T12:07:39.357Z,13.80
2019-05-25T12:10:08.463Z,13.80
2019-05-25T12:12:37.211Z,13.90
2019-05-25T12:15:10.798Z,14.10
2019-05-25T12:17:39.522Z,14.20
2019-05-25T12:20:08.759Z,14.20
2019-05-25T12:22:37.718Z,14.20
2019-05-25T12:25:07.863Z,13.90
2019-05-25T12:27:36.637Z,13.80
2019-05-25T12:30:09.310Z,13.60
2019-05-25T12:32:38.121Z,13.50
2019-05-25T12:35:08.140Z,13.30
2019-05-25T12:37:37.016Z,13.20
2019-05-25T12:40:07.427Z,13.40
2019-05-25T12:42:36.173Z,13.60
2019-05-25T12:45:08.992Z,13.60
2019-05-25T12:47:37.709Z,13.50
2019-05-25T12:50:07.111Z,13.30
2019-05-25T12:52:35.858Z,13.30
2019-05-25T12:55:06.706Z,13.40
2019-05-25T12:57:35.646Z,13.40
2019-05-25T13:00:15.597Z,13.20
2019-05-25T13:02:36.987Z,13.40
2019-05-25T13:05:06.147Z,13.40
2019-05-25T13:07:34.964Z,13.60
2019-05-25T13:10:05.555Z,13.60
2019-05-25T13:12:34.290Z,13.60
2019-05-25T13:15:03.237Z,13.50
2019-05-25T13:17:31.980Z,13.50
2019-05-25T13:20:00.792Z,13.20
2019-05-25T13:22:29.565Z,13.20
2019-05-25T13:24:58.297Z,13.40
2019-05-25T13:27:27.073Z,13.30
2019-05-25T13:29:55.968Z,13.30
2019-05-25T13:32:24.792Z,13.40
2019-05-25T13:34:53.519Z,13.50
2019-05-25T13:37:22.245Z,13.50
2019-05-25T13:39:51.017Z,13.60
2019-05-25T13:42:19.867Z,13.60
2019-05-25T13:44:48.778Z,13.60
2019-05-25T13:47:17.500Z,13.60
2019-05-25T13:49:46.225Z,13.90
2019-05-25T13:52:14.977Z,14.00
2019-05-25T13:54:43.843Z,14.00
2019-05-25T13:57:12.644Z,13.80
2019-05-25T13:59:41.401Z,13.90
2019-05-25T14:02:10.130Z,14.20
2019-05-25T14:04:38.877Z,14.30
2019-05-25T14:07:07.701Z,14.10
2019-05-25T14:09:36.561Z,14.00
2019-05-25T14:12:05.311Z,13.70
2019-05-25T14:14:34.119Z,13.80
2019-05-25T14:17:02.889Z,13.90
2019-05-25T14:19:31.651Z,14.10
2019-05-25T14:22:00.397Z,14.20
2019-05-25T14:24:29.231Z,14.00
2019-05-25T14:26:58.029Z,14.00
2019-05-25T14:29:26.844Z,13.90
2019-05-25T14:31:55.629Z,13.90
2019-05-25T14:34:24.357Z,13.40
2019-05-25T14:36:53.164Z,13.60
2019-05-25T14:39:22.065Z,13.70
2019-05-25T14:41:50.983Z,13.60
2019-05-25T14:44:19.705Z,13.60
2019-05-25T14:46:48.476Z,13.60
2019-05-25T14:49:17.209Z,13.50
2019-05-25T14:51:45.944Z,13.70
2019-05-25T14:54:14.755Z,13.60
2019-05-25T14:56:43.510Z,13.50
2019-05-25T14:59:12.329Z,13.30
2019-05-25T15:01:41.125Z,13.40
2019-05-25T15:04:09.950Z,13.40
2019-05-25T15:06:38.922Z,13.40
2019-05-25T15:09:08.278Z,13.50
2019-05-25T15:11:37.073Z,13.50
2019-05-25T15:14:05.809Z,13.60
2019-05-25T15:16:34.561Z,13.30
2019-05-25T15:19:03.293Z,13.10
2019-05-25T15:21:32.344Z,13.10
2019-05-25T15:24:01.206Z,13.20
2019-05-25T15:26:29.945Z,13.30
2019-05-25T15:28:58.767Z,13.30
2019-05-25T15:31:30.210Z,13.20
2019-05-25T15:33:59.306Z,13.20
2019-05-25T15:36:30.853Z,13.10
2019-05-25T15:38:59.555Z,13.00
2019-05-25T15:41:28.358Z,12.90
2019-05-25T15:43:57.145Z,12.70
2019-05-25T15:46:25.979Z,12.70
2019-05-25T15:48:54.808Z,12.50
2019-05-25T15:51:23.625Z,12.50
2019-05-25T15:53:52.373Z,12.50
2019-05-25T15:56:21.190Z,12.60
2019-05-25T15:58:50.119Z,12.70
2019-05-25T16:01:19.023Z,12.60
2019-05-25T16:03:47.755Z,12.30
2019-05-25T16:06:16.502Z,12.30
2019-05-25T16:08:45.800Z,12.20
2019-05-25T16:11:14.611Z,12.10
2019-05-25T16:13:45.576Z,12.10
2019-05-25T16:16:14.207Z,12.10
2019-05-25T16:18:43.035Z,12.10
2019-05-25T16:21:11.830Z,12.20
2019-05-25T16:23:40.637Z,12.10
2019-05-25T16:26:09.451Z,12.20
2019-05-25T16:28:38.180Z,12.20
2019-05-25T16:31:06.959Z,12.20
2019-05-25T16:33:35.688Z,11.90
2019-05-25T16:36:04.488Z,12.00
2019-05-25T16:38:33.322Z,11.90
2019-05-25T16:41:02.620Z,11.70
2019-05-25T16:43:31.465Z,11.70
2019-05-25T16:46:00.298Z,11.70
2019-05-25T16:48:30.524Z,11.70
2019-05-25T16:51:00.338Z,11.60
2019-05-25T16:53:29.094Z,11.60
2019-05-25T16:55:57.824Z,11.50
2019-05-25T16:58:26.624Z,11.50
2019-05-25T17:00:56.414Z,11.50
2019-05-25T17:03:28.534Z,11.50
2019-05-25T17:05:55.902Z,11.40
2019-05-25T17:08:24.682Z,11.40
2019-05-25T17:10:53.430Z,11.50
2019-05-25T17:13:22.190Z,11.50
2019-05-25T17:15:50.939Z,11.50
2019-05-25T17:18:19.671Z,11.40
2019-05-25T17:20:48.404Z,11.50
2019-05-25T17:23:17.240Z,11.40
2019-05-25T17:25:46.067Z,11.30
2019-05-25T17:28:15.763Z,11.20
2019-05-25T17:30:45.941Z,11.30
2019-05-25T17:33:15.276Z,11.30
2019-05-25T17:35:44.504Z,11.20
2019-05-25T17:38:15.231Z,11.20
2019-05-25T17:40:43.645Z,11.20
2019-05-25T17:43:12.468Z,11.20
2019-05-25T17:45:41.303Z,11.20
2019-05-25T17:48:10.431Z,11.20
2019-05-25T17:50:39.120Z,11.20
2019-05-25T17:53:07.889Z,11.20
2019-05-25T17:55:36.721Z,11.10
2019-05-25T17:58:05.602Z,11.10
2019-05-25T18:00:47.281Z,11.10
2019-05-25T18:03:16.086Z,11.10
2019-05-25T18:05:45.186Z,11.10
2019-05-25T18:08:13.958Z,11.00
2019-05-25T18:10:52.999Z,11.00
2019-05-25T18:13:13.164Z,11.00
2019-05-25T18:15:41.913Z,11.00
2019-05-25T18:18:10.660Z,11.00
2019-05-25T18:20:39.522Z,11.00
2019-05-25T18:23:10.009Z,11.00
2019-05-25T18:25:38.712Z,11.00
2019-05-25T18:28:07.676Z,10.90
2019-05-25T18:30:36.390Z,10.80
2019-05-25T18:33:05.137Z,10.80
2019-05-25T18:35:34.193Z,10.80
2019-05-25T18:38:03.019Z,10.80
2019-05-25T18:40:31.833Z,10.90
2019-05-25T18:43:00.693Z,10.90
2019-05-25T18:45:31.324Z,10.90
2019-05-25T18:48:00.176Z,10.90
2019-05-25T18:50:30.376Z,10.80
2019-05-25T18:52:59.124Z,10.80
2019-05-25T18:55:27.885Z,10.80
2019-05-25T18:57:56.682Z,10.80
2019-05-25T19:00:25.759Z,10.80
2019-05-25T19:02:54.532Z,10.80
2019-05-25T19:05:23.397Z,10.70
2019-05-25T19:07:53.016Z,10.60
2019-05-25T19:10:22.888Z,10.70
2019-05-25T19:12:51.724Z,10.60
2019-05-25T19:15:20.570Z,10.50
2019-05-25T19:17:49.323Z,10.50
2019-05-25T19:20:21.243Z,10.60
2019-05-25T19:22:49.595Z,10.60
2019-05-25T19:25:18.828Z,10.60
2019-05-25T19:27:47.639Z,10.60
2019-05-25T19:30:17.581Z,10.60
2019-05-25T19:32:46.414Z,10.60
2019-05-25T19:35:15.137Z,10.60
2019-05-25T19:37:43.860Z,10.50
2019-05-25T19:40:13.221Z,10.60
2019-05-25T19:42:41.965Z,10.60
2019-05-25T19:45:10.961Z,10.50
2019-05-25T19:47:39.715Z,10.50
2019-05-25T19:50:09.233Z,10.40
2019-05-25T19:52:37.962Z,10.40
2019-05-25T19:55:12.369Z,10.40
2019-05-25T19:57:44.890Z,10.40
2019-05-25T20:00:13.444Z,10.30
2019-05-25T20:02:42.285Z,10.20
2019-05-25T20:05:16.699Z,10.20
2019-05-25T20:07:41.922Z,10.30
2019-05-25T20:10:12.985Z,10.20
2019-05-25T20:12:41.793Z,10.10
2019-05-25T20:15:11.360Z,10.10
2019-05-25T20:17:40.099Z,10.10
2019-05-25T20:20:10.188Z,10.10
2019-05-25T20:22:38.964Z,10.10
2019-05-25T20:25:11.588Z,10.00
2019-05-25T20:27:40.314Z,10.00
2019-05-25T20:30:09.884Z,10.00
2019-05-25T20:32:38.699Z,10.10
2019-05-25T20:35:08.407Z,10.10
2019-05-25T20:37:38.812Z,10.10
2019-05-25T20:40:08.605Z,10.00
2019-05-25T20:42:37.530Z,10.00
2019-05-25T20:45:08.989Z,9.90
2019-05-25T20:47:37.734Z,9.90
2019-05-25T20:50:07.853Z,9.80
2019-05-25T20:52:36.809Z,9.80
2019-05-25T20:55:08.842Z,9.80
2019-05-25T20:57:37.571Z,9.90
2019-05-25T21:00:08.712Z,9.80
2019-05-25T21:02:37.457Z,9.80
2019-05-25T21:05:07.885Z,9.80
2019-05-25T21:07:36.596Z,9.80
2019-05-25T21:10:07.386Z,9.80
2019-05-25T21:12:36.138Z,9.80
2019-05-25T21:15:07.769Z,9.80
2019-05-25T21:17:36.499Z,9.90
2019-05-25T21:20:08.830Z,9.90
2019-05-25T21:22:37.584Z,9.90
2019-05-25T21:25:07.731Z,9.90
2019-05-25T21:27:37.177Z,9.80
2019-05-25T21:30:08.911Z,9.90
2019-05-25T21:32:37.674Z,9.90
2019-05-25T21:35:06.999Z,9.90
2019-05-25T21:37:35.928Z,9.80
2019-05-25T21:40:06.974Z,9.90
2019-05-25T21:42:36.153Z,9.80
2019-05-25T21:45:06.735Z,9.80
2019-05-25T21:47:35.473Z,9.80
2019-05-25T21:50:06.043Z,9.80
2019-05-25T21:52:34.809Z,9.80
2019-05-25T21:55:03.783Z,9.80
2019-05-25T21:57:32.501Z,9.90
2019-05-25T22:00:01.317Z,9.90
2019-05-25T22:02:30.126Z,9.90
2019-05-25T22:04:58.846Z,9.80
2019-05-25T22:07:27.711Z,9.80
2019-05-25T22:09:56.547Z,9.80
2019-05-25T22:12:25.270Z,9.80
2019-05-25T22:14:54.149Z,9.80
2019-05-25T22:17:23.095Z,9.80
2019-05-25T22:19:51.855Z,9.90
2019-05-25T22:22:20.696Z,9.90
2019-05-25T22:24:49.415Z,9.90
2019-05-25T22:27:18.154Z,9.80
2019-05-25T22:29:47.421Z,9.80
2019-05-25T22:32:16.208Z,9.90
2019-05-25T22:34:45.087Z,9.90
2019-05-25T22:37:13.835Z,9.90
2019-05-25T22:39:42.585Z,9.90
2019-05-25T22:42:11.413Z,9.90
2019-05-25T22:44:41.602Z,10.00
2019-05-25T22:47:10.279Z,9.90
2019-05-25T22:49:39.016Z,9.90
2019-05-25T22:52:07.780Z,9.80
2019-05-25T22:54:36.566Z,9.90
2019-05-25T22:57:06.558Z,9.80
2019-05-25T22:59:35.330Z,9.80
2019-05-25T23:02:06.272Z,9.80
2019-05-25T23:04:35.044Z,9.80
2019-05-25T23:07:04.035Z,9.80
2019-05-25T23:09:32.927Z,9.80
2019-05-25T23:12:05.253Z,9.80
2019-05-25T23:14:34.082Z,9.80
2019-05-25T23:17:02.843Z,9.80
2019-05-25T23:19:31.558Z,9.80
2019-05-25T23:22:00.394Z,9.80
2019-05-25T23:24:29.051Z,9.80
2019-05-25T23:26:57.886Z,9.80
2019-05-25T23:29:26.754Z,9.90
2019-05-25T23:31:55.604Z,10.00
2019-05-25T23:34:24.340Z,9.90
2019-05-25T23:36:53.129Z,9.90
2019-05-25T23:39:21.956Z,9.90
2019-05-25T23:41:50.764Z,10.00
2019-05-25T23:44:19.510Z,9.90
2019-05-25T23:46:48.256Z,9.90
2019-05-25T23:49:16.988Z,9.80
2019-05-25T23:51:45.754Z,9.80
2019-05-25T23:54:14.473Z,9.80
2019-05-25T23:56:43.282Z,9.80
2019-05-25T23:59:12.022Z,9.80
